createdAt,value
2023-02-20T00:01:25.017Z,75.75
2023-02-20T00:04:05.399Z,75.98
2023-02-20T00:06:37.149Z,75.67
2023-02-20T00:09:54.494Z,75.47
2023-02-20T00:12:24.722Z,75.37
2023-02-20T00:14:58.504Z,75.54
2023-02-20T00:17:32.760Z,75.87
2023-02-20T00:20:03.580Z,75.76
2023-02-20T00:22:42.243Z,75.17
2023-02-20T00:25:17.118Z,74.97
2023-02-20T00:27:52.682Z,74.84
2023-02-20T00:30:23.968Z,74.91
2023-02-20T00:32:56.675Z,75.32
2023-02-20T00:35:39.705Z,75.80
2023-02-20T00:38:26.782Z,74.85
2023-02-20T00:40:58.383Z,74.51
2023-02-20T00:43:33.394Z,74.54
2023-02-20T00:46:02.549Z,74.76
2023-02-20T00:48:35.627Z,74.77
2023-02-20T00:51:25.762Z,74.86
2023-02-20T00:54:00.396Z,74.75
2023-02-20T00:56:31.590Z,74.49
2023-02-20T00:59:00.366Z,74.21
2023-02-20T01:01:28.679Z,74.46
2023-02-20T01:03:58.764Z,74.82
2023-02-20T01:06:39.755Z,74.98
2023-02-20T01:09:12.199Z,74.35
2023-02-20T01:11:43.072Z,74.48
2023-02-20T01:14:16.827Z,74.17
2023-02-20T01:16:55.480Z,74.95
2023-02-20T01:19:25.785Z,75.09
2023-02-20T01:21:59.033Z,75.12
2023-02-20T01:24:29.100Z,74.98
2023-02-20T01:26:57.792Z,75.01
2023-02-20T01:29:33.193Z,75.37
2023-02-20T01:32:12.452Z,75.66
2023-02-20T01:35:53.523Z,75.88
2023-02-20T01:38:37.288Z,75.90
2023-02-20T01:41:10.437Z,75.81
2023-02-20T01:43:39.327Z,75.63
2023-02-20T01:46:28.629Z,75.57
2023-02-20T01:49:09.128Z,75.86
2023-02-20T01:51:48.439Z,75.45
2023-02-20T01:54:18.956Z,75.46
2023-02-20T01:56:50.630Z,75.14
2023-02-20T01:59:21.973Z,75.27
2023-02-20T02:01:53.101Z,75.35
2023-02-20T02:04:31.596Z,75.40
2023-02-20T02:07:47.502Z,75.76
2023-02-20T02:10:19.014Z,75.53
2023-02-20T02:12:51.398Z,75.42
2023-02-20T02:15:27.082Z,75.19
2023-02-20T02:18:17.714Z,76.08
2023-02-20T02:21:32.509Z,76.02
2023-02-20T02:24:08.483Z,75.37
2023-02-20T02:27:19.745Z,75.12
2023-02-20T02:30:00.376Z,75.07
2023-02-20T02:32:46.063Z,75.41
2023-02-20T02:35:28.926Z,75.12
2023-02-20T02:38:26.588Z,75.07
2023-02-20T02:41:04.167Z,74.54
2023-02-20T02:43:34.272Z,75.15
2023-02-20T02:46:10.243Z,75.36
2023-02-20T02:48:45.782Z,75.12
2023-02-20T02:51:21.672Z,74.80
2023-02-20T02:54:22.275Z,74.92
2023-02-20T02:57:01.654Z,74.88
2023-02-20T03:00:19.778Z,75.15
2023-02-20T03:03:10.077Z,75.28
2023-02-20T03:05:54.907Z,74.64
2023-02-20T03:08:43.380Z,74.61
2023-02-20T03:11:36.949Z,74.97
2023-02-20T03:14:42.450Z,74.81
2023-02-20T03:17:18.588Z,74.53
2023-02-20T03:19:57.052Z,74.71
2023-02-20T03:22:49.259Z,74.91
2023-02-20T03:25:57.434Z,74.91
2023-02-20T03:28:32.832Z,75.17
2023-02-20T03:31:09.592Z,74.93
2023-02-20T03:34:34.020Z,74.73
2023-02-20T03:37:29.324Z,74.73
2023-02-20T03:40:19.345Z,75.00
2023-02-20T03:43:14.940Z,74.92
2023-02-20T03:45:43.740Z,74.61
2023-02-20T03:48:31.337Z,74.47
2023-02-20T03:51:09.486Z,74.25
2023-02-20T03:53:47.730Z,74.27
2023-02-20T03:56:19.498Z,73.99
2023-02-20T03:59:42.254Z,73.63
2023-02-20T04:02:23.039Z,73.46
2023-02-20T04:05:10.850Z,73.57
2023-02-20T04:07:57.238Z,73.03
2023-02-20T04:10:37.385Z,73.61
2023-02-20T04:13:13.830Z,73.55
2023-02-20T04:15:49.536Z,73.12
2023-02-20T04:18:20.741Z,72.85
2023-02-20T04:20:53.504Z,72.53
2023-02-20T04:23:50.250Z,72.74
2023-02-20T04:26:26.223Z,72.96
2023-02-20T04:28:54.798Z,73.07
2023-02-20T04:31:24.523Z,72.79
2023-02-20T04:34:27.568Z,72.24
2023-02-20T04:37:12.673Z,72.13
2023-02-20T04:39:43.460Z,72.13
2023-02-20T04:42:12.685Z,72.71
2023-02-20T04:44:45.184Z,72.75
2023-02-20T04:47:24.356Z,71.60
2023-02-20T04:49:58.259Z,71.41
2023-02-20T04:52:29.340Z,71.66
2023-02-20T04:55:01.642Z,71.60
2023-02-20T04:57:32.052Z,71.65
2023-02-20T05:00:06.874Z,71.94
2023-02-20T05:02:38.628Z,71.71
2023-02-20T05:05:07.826Z,71.33
2023-02-20T05:07:36.324Z,71.15
2023-02-20T05:10:17.585Z,71.28
2023-02-20T05:12:50.625Z,71.64
2023-02-20T05:15:22.201Z,71.91
2023-02-20T05:19:43.777Z,70.91
2023-02-20T05:22:23.443Z,70.87
2023-02-20T05:24:59.792Z,70.63
2023-02-20T05:27:34.797Z,70.74
2023-02-20T05:30:06.818Z,71.12
2023-02-20T05:32:37.730Z,71.35
2023-02-20T05:35:08.763Z,70.96
2023-02-20T05:37:38.068Z,70.48
2023-02-20T05:40:12.035Z,70.59
2023-02-20T05:42:46.191Z,70.70
2023-02-20T05:45:16.283Z,70.83
2023-02-20T05:47:45.309Z,71.23
2023-02-20T05:50:14.920Z,71.00
2023-02-20T05:52:48.103Z,70.65
2023-02-20T05:55:20.191Z,70.66
2023-02-20T05:57:52.471Z,70.46
2023-02-20T06:00:23.104Z,70.51
2023-02-20T06:02:53.450Z,70.89
2023-02-20T06:05:28.721Z,70.91
2023-02-20T06:07:58.885Z,70.35
2023-02-20T06:10:30.809Z,70.34
2023-02-20T06:13:01.134Z,69.95
2023-02-20T06:15:35.613Z,70.06
2023-02-20T06:18:10.294Z,69.84
2023-02-20T06:20:45.076Z,69.83
2023-02-20T06:23:20.176Z,70.20
2023-02-20T06:25:52.466Z,69.86
2023-02-20T06:28:22.384Z,69.23
2023-02-20T06:30:51.908Z,68.89
2023-02-20T06:33:20.776Z,68.93
2023-02-20T06:35:49.257Z,68.76
2023-02-20T06:38:18.662Z,68.63
2023-02-20T06:40:54.068Z,68.90
2023-02-20T06:43:24.229Z,68.38
2023-02-20T06:46:37.519Z,67.72
2023-02-20T06:49:08.386Z,67.73
2023-02-20T06:51:37.915Z,67.38
2023-02-20T06:54:07.277Z,67.39
2023-02-20T06:56:36.098Z,67.28
2023-02-20T06:59:10.491Z,66.77
2023-02-20T07:01:44.290Z,67.00
2023-02-20T07:04:19.213Z,67.27
2023-02-20T07:06:50.325Z,66.46
2023-02-20T07:09:20.839Z,66.09
2023-02-20T07:11:58.412Z,65.56
2023-02-20T07:14:27.563Z,65.19
2023-02-20T07:16:56.311Z,64.88
2023-02-20T07:19:25.640Z,64.71
2023-02-20T07:21:56.230Z,63.64
2023-02-20T07:24:28.937Z,63.04
2023-02-20T07:29:26.718Z,62.36
2023-02-20T07:31:55.207Z,61.67
2023-02-20T07:34:25.061Z,60.89
2023-02-20T07:36:54.681Z,60.50
2023-02-20T07:39:31.181Z,60.64
2023-02-20T07:42:04.610Z,59.94
2023-02-20T07:44:44.888Z,59.37
2023-02-20T07:47:25.484Z,58.96
2023-02-20T07:50:09.612Z,58.88
2023-02-20T07:52:39.219Z,57.79
2023-02-20T07:55:08.192Z,57.09
2023-02-20T07:57:37.921Z,57.32
2023-02-20T08:00:08.524Z,56.13
2023-02-20T08:02:45.927Z,55.95
2023-02-20T08:05:14.683Z,55.79
2023-02-20T08:07:47.407Z,55.39
2023-02-20T08:10:18.392Z,55.39
2023-02-20T08:12:52.613Z,55.68
2023-02-20T08:15:30.397Z,54.02
2023-02-20T08:18:02.503Z,54.06
2023-02-20T08:20:34.391Z,53.62
2023-02-20T08:23:06.537Z,52.81
2023-02-20T08:25:35.714Z,52.36
2023-02-20T08:28:05.572Z,52.88
2023-02-20T08:30:34.410Z,53.06
2023-02-20T08:33:09.498Z,52.58
2023-02-20T08:35:38.952Z,52.01
2023-02-20T08:39:01.367Z,52.77
2023-02-20T08:41:32.319Z,52.02
2023-02-20T08:44:01.407Z,52.15
2023-02-20T08:46:31.770Z,51.42
2023-02-20T08:49:01.146Z,52.01
2023-02-20T08:51:34.426Z,51.55
2023-02-20T08:54:04.752Z,50.47
2023-02-20T08:56:36.209Z,50.12
2023-02-20T08:59:07.719Z,51.15
2023-02-20T09:01:37.678Z,50.93
2023-02-20T09:04:08.808Z,50.15
2023-02-20T09:06:38.657Z,49.39
2023-02-20T09:09:09.311Z,49.25
2023-02-20T09:11:38.039Z,49.37
2023-02-20T09:14:07.217Z,49.70
2023-02-20T09:16:38.482Z,48.93
2023-02-20T09:19:09.476Z,49.78
2023-02-20T09:21:41.337Z,49.11
2023-02-20T09:24:14.049Z,48.80
2023-02-20T09:26:44.920Z,47.50
2023-02-20T09:29:19.830Z,47.24
2023-02-20T09:31:52.967Z,45.66
2023-02-20T09:34:34.812Z,45.70
2023-02-20T09:37:03.556Z,45.09
2023-02-20T09:39:36.021Z,44.76
2023-02-20T09:42:18.060Z,44.60
2023-02-20T09:45:02.334Z,44.85
2023-02-20T09:47:59.301Z,44.62
2023-02-20T09:50:37.836Z,44.50
2023-02-20T09:53:44.371Z,44.39
2023-02-20T09:56:36.153Z,43.73
2023-02-20T09:59:16.746Z,42.55
2023-02-20T10:02:06.912Z,41.84
2023-02-20T10:05:00.698Z,42.44
2023-02-20T10:07:37.362Z,42.74
2023-02-20T10:10:25.090Z,42.97
2023-02-20T10:13:16.089Z,43.42
2023-02-20T10:16:07.654Z,41.80
2023-02-20T10:18:59.396Z,41.29
2023-02-20T10:21:44.749Z,41.79
2023-02-20T10:24:58.274Z,42.19
2023-02-20T10:28:03.734Z,43.15
2023-02-20T10:30:38.809Z,43.40
2023-02-20T10:33:36.932Z,42.89
2023-02-20T10:36:14.657Z,42.55
2023-02-20T10:39:16.831Z,43.57
2023-02-20T10:42:07.816Z,43.75
2023-02-20T10:44:58.219Z,44.32
2023-02-20T10:47:58.138Z,44.86
2023-02-20T10:50:37.875Z,44.68
2023-02-20T10:53:34.211Z,44.56
2023-02-20T10:56:17.457Z,43.22
2023-02-20T10:58:59.026Z,42.90
2023-02-20T11:01:30.843Z,43.63
2023-02-20T11:04:18.527Z,43.56
2023-02-20T11:06:57.910Z,43.38
2023-02-20T11:09:26.253Z,43.66
2023-02-20T11:11:56.771Z,43.06
2023-02-20T11:14:41.572Z,42.77
2023-02-20T11:17:17.375Z,42.38
2023-02-20T11:19:47.493Z,42.47
2023-02-20T11:22:17.435Z,42.93
2023-02-20T11:24:48.572Z,43.60
2023-02-20T11:27:23.898Z,43.79
2023-02-20T11:30:05.126Z,43.30
2023-02-20T11:32:40.890Z,43.45
2023-02-20T11:35:18.749Z,43.09
2023-02-20T11:38:19.684Z,43.43
2023-02-20T11:41:30.056Z,44.04
2023-02-20T11:44:11.027Z,45.21
2023-02-20T11:46:44.613Z,45.88
2023-02-20T11:49:25.358Z,45.31
2023-02-20T11:51:54.182Z,44.69
2023-02-20T11:54:30.480Z,44.45
2023-02-20T11:57:18.103Z,43.21
2023-02-20T11:59:48.611Z,42.98
2023-02-20T12:02:21.597Z,43.29
2023-02-20T12:05:07.500Z,43.44
2023-02-20T12:07:44.756Z,42.63
2023-02-20T12:10:33.158Z,42.78
2023-02-20T12:13:13.955Z,42.79
2023-02-20T12:15:51.905Z,42.93
2023-02-20T12:18:28.164Z,43.25
2023-02-20T12:21:16.703Z,43.65
2023-02-20T12:23:55.834Z,44.29
2023-02-20T12:26:38.434Z,44.79
2023-02-20T12:29:28.477Z,45.17
2023-02-20T12:32:16.383Z,45.59
2023-02-20T12:35:36.383Z,46.00
2023-02-20T12:38:28.931Z,47.12
2023-02-20T12:41:23.441Z,47.54
2023-02-20T12:44:12.466Z,48.18
2023-02-20T12:46:51.594Z,48.19
2023-02-20T12:49:56.086Z,48.43
2023-02-20T12:57:20.327Z,49.21
2023-02-20T13:00:27.422Z,49.27
2023-02-20T13:03:07.995Z,49.14
2023-02-20T13:05:44.423Z,49.40
2023-02-20T13:08:28.094Z,49.95
2023-02-20T13:11:07.088Z,50.01
2023-02-20T13:14:01.807Z,50.19
2023-02-20T13:16:48.926Z,50.55
2023-02-20T13:19:26.704Z,50.93
2023-02-20T13:21:56.748Z,51.04
2023-02-20T13:24:37.388Z,51.17
2023-02-20T13:27:11.065Z,51.39
2023-02-20T13:30:04.138Z,51.42
2023-02-20T13:32:34.473Z,51.50
2023-02-20T13:35:49.045Z,51.82
2023-02-20T13:38:19.352Z,51.85
2023-02-20T13:40:57.695Z,51.88
2023-02-20T13:43:40.024Z,51.76
2023-02-20T13:46:18.032Z,52.17
2023-02-20T13:48:50.164Z,51.94
2023-02-20T13:51:22.566Z,52.27
2023-02-20T13:53:54.416Z,52.43
2023-02-20T13:56:39.395Z,52.41
2023-02-20T13:59:13.183Z,52.58
2023-02-20T14:02:21.753Z,52.83
2023-02-20T14:04:54.928Z,53.39
2023-02-20T14:07:44.063Z,53.47
2023-02-20T14:10:26.144Z,53.71
2023-02-20T14:13:25.174Z,53.69
2023-02-20T14:16:00.621Z,54.40
2023-02-20T14:18:41.229Z,54.41
2023-02-20T14:21:20.682Z,54.61
2023-02-20T14:23:50.326Z,54.66
2023-02-20T14:26:37.728Z,54.78
2023-02-20T14:29:07.251Z,55.12
2023-02-20T14:31:39.205Z,55.23
2023-02-20T14:34:16.711Z,55.30
2023-02-20T14:37:07.220Z,55.59
2023-02-20T14:40:15.600Z,55.88
2023-02-20T14:43:01.013Z,56.56
2023-02-20T14:45:29.991Z,57.26
2023-02-20T14:48:05.955Z,57.88
2023-02-20T14:50:36.077Z,58.57
2023-02-20T14:53:21.056Z,59.97
2023-02-20T14:55:51.575Z,60.48
2023-02-20T14:58:23.950Z,61.23
2023-02-20T15:00:56.693Z,63.13
2023-02-20T15:03:31.720Z,64.43
2023-02-20T15:06:02.665Z,64.67
2023-02-20T15:08:36.356Z,65.27
2023-02-20T15:11:13.932Z,65.61
2023-02-20T15:13:45.553Z,66.37
2023-02-20T15:16:23.292Z,66.58
2023-02-20T15:18:53.756Z,67.75
2023-02-20T15:21:34.860Z,67.59
2023-02-20T15:24:26.382Z,67.47
2023-02-20T15:27:11.664Z,67.56
2023-02-20T15:29:46.077Z,68.09
2023-02-20T15:32:20.005Z,68.72
2023-02-20T15:34:55.137Z,70.36
2023-02-20T15:37:49.170Z,70.36
2023-02-20T15:40:34.909Z,70.71
2023-02-20T15:43:18.680Z,71.52
2023-02-20T15:45:57.804Z,72.58
2023-02-20T15:48:27.469Z,73.05
2023-02-20T15:50:57.402Z,73.23
2023-02-20T15:53:29.760Z,73.15
2023-02-20T15:55:59.782Z,73.34
2023-02-20T15:58:38.417Z,73.73
2023-02-20T16:01:11.394Z,74.53
2023-02-20T16:03:51.749Z,74.14
2023-02-20T16:06:22.260Z,74.18
2023-02-20T16:08:52.815Z,74.03
2023-02-20T16:11:23.443Z,74.23
2023-02-20T16:13:57.330Z,74.71
2023-02-20T16:16:38.047Z,74.65
2023-02-20T16:19:16.769Z,74.67
2023-02-20T16:21:58.556Z,74.58
2023-02-20T16:24:33.063Z,75.33
2023-02-20T16:27:05.755Z,75.85
2023-02-20T16:29:37.298Z,76.60
2023-02-20T16:32:07.494Z,76.57
2023-02-20T16:34:38.654Z,77.12
2023-02-20T16:37:23.707Z,77.90
2023-02-20T16:39:54.964Z,79.40
2023-02-20T16:42:26.633Z,79.84
2023-02-20T16:44:59.991Z,80.39
2023-02-20T16:47:34.771Z,80.81
2023-02-20T16:50:11.387Z,81.53
2023-02-20T16:53:03.262Z,82.43
2023-02-20T16:55:36.914Z,82.88
2023-02-20T16:58:21.410Z,83.32
2023-02-20T17:01:25.482Z,84.10
2023-02-20T17:03:53.805Z,84.87
2023-02-20T17:06:31.188Z,85.23
2023-02-20T17:09:01.787Z,85.29
2023-02-20T17:11:43.745Z,85.69
2023-02-20T17:14:15.142Z,86.39
2023-02-20T17:16:53.517Z,87.28
2023-02-20T17:19:27.703Z,88.33
2023-02-20T17:22:16.985Z,88.53
2023-02-20T17:24:46.787Z,89.05
2023-02-20T17:27:18.161Z,89.44
2023-02-20T17:29:48.449Z,89.86
2023-02-20T17:32:25.136Z,90.24
2023-02-20T17:34:53.476Z,90.61
2023-02-20T17:49:08.074Z,89.69
2023-02-20T17:51:37.130Z,88.50
2023-02-20T17:54:08.690Z,88.81
2023-02-20T17:56:46.681Z,89.06
2023-02-20T17:59:17.325Z,89.30
2023-02-20T18:01:49.065Z,89.55
2023-02-20T18:04:21.307Z,90.02
2023-02-20T18:06:51.337Z,90.56
2023-02-20T18:09:22.996Z,90.82
2023-02-20T18:11:56.563Z,91.00
2023-02-20T18:14:25.313Z,91.07
2023-02-20T18:17:06.196Z,91.62
2023-02-20T18:19:44.861Z,92.13
2023-02-20T18:22:17.933Z,92.37
2023-02-20T18:24:49.004Z,92.44
2023-02-20T18:27:33.225Z,92.66
2023-02-20T18:30:06.160Z,92.77
2023-02-20T18:32:38.576Z,93.28
2023-02-20T18:35:09.172Z,93.70
2023-02-20T18:37:43.547Z,94.02
2023-02-20T18:40:18.666Z,94.54
2023-02-20T18:42:48.915Z,94.74
2023-02-20T18:45:23.244Z,95.14
2023-02-20T18:47:52.297Z,95.30
2023-02-20T18:50:27.333Z,95.41
2023-02-20T18:53:01.155Z,95.69
2023-02-20T18:55:32.231Z,96.19
2023-02-20T18:58:16.054Z,96.12
2023-02-20T19:00:48.355Z,96.33
2023-02-20T19:03:20.933Z,96.77
2023-02-20T19:05:54.187Z,96.96
2023-02-20T19:08:28.600Z,97.10
2023-02-20T19:11:26.474Z,97.48
2023-02-20T19:14:00.256Z,97.80
2023-02-20T19:16:31.734Z,98.12
2023-02-20T19:19:01.968Z,98.18
2023-02-20T19:21:30.961Z,98.43
2023-02-20T19:23:59.954Z,98.59
2023-02-20T19:26:53.464Z,99.05
2023-02-20T19:29:39.412Z,99.33
2023-02-20T19:33:09.052Z,99.80
2023-02-20T19:35:58.964Z,99.99
2023-02-20T19:38:38.595Z,100.00
2023-02-20T19:41:40.689Z,100.00
2023-02-20T19:44:43.139Z,100.00
2023-02-20T19:49:36.164Z,100.00
2023-02-20T19:52:13.206Z,100.00
2023-02-20T19:55:00.920Z,100.00
2023-02-20T19:57:31.568Z,100.00
2023-02-20T20:00:23.111Z,100.00
2023-02-20T20:02:58.396Z,100.00
2023-02-20T20:05:29.181Z,100.00
2023-02-20T20:08:07.810Z,100.00
2023-02-20T20:10:42.841Z,100.00
2023-02-20T20:13:12.324Z,100.00
2023-02-20T20:15:51.795Z,100.00
2023-02-20T20:18:22.806Z,100.00
2023-02-20T20:20:54.053Z,100.00
2023-02-20T20:23:27.768Z,100.00
2023-02-20T20:26:01.871Z,100.00
2023-02-20T20:28:35.285Z,100.00
2023-02-20T20:31:18.857Z,100.00
2023-02-20T20:33:59.262Z,100.00
2023-02-20T20:36:33.685Z,100.00
2023-02-20T20:39:16.544Z,100.00
2023-02-20T20:41:47.022Z,100.00
2023-02-20T20:44:27.492Z,100.00
2023-02-20T20:47:14.792Z,100.00
2023-02-20T20:49:54.974Z,100.00
2023-02-20T20:52:27.336Z,100.00
2023-02-20T20:55:11.716Z,100.00
2023-02-20T20:58:10.398Z,100.00
2023-02-20T21:01:01.834Z,100.00
2023-02-20T21:03:33.589Z,100.00
2023-02-20T21:06:03.704Z,100.00
2023-02-20T21:08:34.240Z,100.00
2023-02-20T21:11:13.730Z,100.00
2023-02-20T21:13:47.844Z,100.00
2023-02-20T21:16:29.360Z,100.00
2023-02-20T21:19:29.221Z,100.00
2023-02-20T21:21:57.875Z,100.00
2023-02-20T21:24:41.672Z,100.00
2023-02-20T21:27:14.033Z,100.00
2023-02-20T21:29:48.781Z,100.00
2023-02-20T21:32:18.134Z,100.00
2023-02-20T21:35:04.042Z,100.00
2023-02-20T21:37:33.143Z,100.00
2023-02-20T21:40:16.646Z,100.00
2023-02-20T21:43:12.700Z,100.00
2023-02-20T21:45:53.096Z,100.00
2023-02-20T21:48:24.297Z,100.00
2023-02-20T21:51:22.054Z,100.00
2023-02-20T21:53:57.565Z,100.00
2023-02-20T21:56:29.739Z,100.00
2023-02-20T21:59:02.766Z,100.00
2023-02-20T22:01:35.505Z,100.00
2023-02-20T22:04:08.892Z,100.00
2023-02-20T22:06:46.011Z,100.00
2023-02-20T22:10:12.872Z,100.00
2023-02-20T22:13:04.389Z,100.00
2023-02-20T22:16:07.341Z,100.00
2023-02-20T22:19:19.121Z,100.00
2023-02-20T22:22:28.742Z,100.00
2023-02-20T22:25:26.883Z,100.00
2023-02-20T22:28:31.869Z,100.00
2023-02-20T22:31:31.612Z,100.00
2023-02-20T22:34:23.414Z,100.00
2023-02-20T22:37:11.216Z,100.00
2023-02-20T22:40:07.089Z,100.00
2023-02-20T22:43:35.590Z,100.00
2023-02-20T22:46:45.814Z,100.00
2023-02-20T22:49:41.778Z,100.00
2023-02-20T22:53:12.524Z,100.00
2023-02-20T22:59:18.149Z,100.00
2023-02-20T23:02:13.612Z,100.00
2023-02-20T23:05:02.212Z,100.00
2023-02-20T23:07:59.752Z,100.00
2023-02-20T23:10:53.496Z,100.00
2023-02-20T23:14:07.554Z,100.00
2023-02-20T23:16:55.448Z,100.00
2023-02-20T23:19:43.182Z,100.00
2023-02-20T23:22:34.634Z,100.00
2023-02-20T23:25:24.476Z,100.00
2023-02-20T23:28:13.574Z,100.00
2023-02-20T23:31:01.747Z,100.00
2023-02-20T23:33:51.880Z,100.00
2023-02-20T23:36:46.010Z,100.00
2023-02-20T23:39:33.757Z,100.00
2023-02-20T23:42:31.934Z,100.00
2023-02-20T23:45:20.376Z,100.00
2023-02-20T23:48:23.568Z,100.00
2023-02-20T23:51:20.898Z,100.00
2023-02-20T23:54:08.326Z,100.00
2023-02-20T23:56:59.266Z,100.00
2023-02-20T23:59:46.501Z,100.00
